Time;durP1;ratioP1;P1;durP2;ratioP2;P2;SDS_P1;SDS_P2;PMS_P1;PMS_P2;Temp;Humidity;BMP_temperature;BMP_pressure;BME280_temperature;BME280_humidity;BME280_pressure;Samples;Min_cycle;Max_cycle;Signal;HPM_P1;HPM_P2
2021/12/29 00:01:00;;;;;;;3.13;0.60;;;23.50;93.80;;;;;;5034036;28;20586;-64
2021/12/29 00:03:28;;;;;;;1.88;0.60;;;23.50;93.90;;;;;;5034449;28;20878;-64
2021/12/29 00:05:55;;;;;;;2.92;0.65;;;23.60;94.80;;;;;;5034782;28;20040;-66
2021/12/29 00:08:22;;;;;;;4.07;0.60;;;23.90;93.70;;;;;;5034727;28;20579;-66
2021/12/29 00:10:54;;;;;;;2.15;0.40;;;24.10;94.40;;;;;;5034496;28;20416;-65
2021/12/29 00:13:24;;;;;;;4.28;0.80;;;24.20;92.60;;;;;;5034202;28;20048;-66
2021/12/29 00:15:57;;;;;;;1.63;0.60;;;24.30;94.00;;;;;;5034123;28;20031;-66
2021/12/29 00:18:25;;;;;;;5.22;2.78;;;24.40;93.50;;;;;;5031898;28;20025;-66
2021/12/29 00:20:53;;;;;;;2.95;0.98;;;24.30;94.40;;;;;;5034070;28;20025;-64
2021/12/29 00:23:20;;;;;;;4.40;1.35;;;24.40;94.30;;;;;;5034732;28;20067;-65
2021/12/29 00:25:47;;;;;;;3.67;0.70;;;24.50;93.50;;;;;;5034130;28;20455;-66
2021/12/29 00:28:15;;;;;;;2.80;1.33;;;24.40;95.20;;;;;;4338368;28;10000707;-65
2021/12/29 00:30:43;;;;;;;1.80;0.70;;;24.20;95.50;;;;;;5031459;28;20400;-64
2021/12/29 00:33:10;;;;;;;6.60;0.80;;;24.20;94.20;;;;;;5030862;28;20499;-64
2021/12/29 00:35:38;;;;;;;3.00;0.80;;;24.00;94.30;;;;;;5030389;28;20021;-63
2021/12/29 00:38:07;;;;;;;3.33;0.82;;;23.90;94.40;;;;;;5030451;28;20033;-64
2021/12/29 00:40:34;;;;;;;2.55;0.88;;;23.90;93.90;;;;;;5030528;28;20029;-65
2021/12/29 00:43:02;;;;;;;3.30;0.88;;;23.60;94.70;;;;;;5029597;28;20025;-65
2021/12/29 00:45:32;;;;;;;9.10;2.03;;;23.50;96.10;;;;;;5029419;28;20389;-65
2021/12/29 00:47:59;;;;;;;2.85;0.40;;;23.50;96.10;;;;;;5030624;28;20387;-65
2021/12/29 00:50:26;;;;;;;4.43;0.90;;;23.60;95.50;;;;;;5030094;28;20546;-64
2021/12/29 00:52:54;;;;;;;2.83;0.70;;;23.40;96.60;;;;;;5030609;28;20515;-64
2021/12/29 00:55:20;;;;;;;5.03;0.98;;;23.30;96.70;;;;;;5031387;28;20952;-64
2021/12/29 00:57:48;;;;;;;3.30;0.93;;;23.30;96.60;;;;;;5027382;28;20037;-65
2021/12/29 01:00:19;;;;;;;1.42;0.50;;;23.20;96.60;;;;;;5030654;28;20100;-64
2021/12/29 01:02:46;;;;;;;0.60;0.50;;;23.00;96.70;;;;;;5031357;28;20029;-64
2021/12/29 01:05:14;;;;;;;3.42;0.63;;;23.10;96.80;;;;;;5029777;28;20554;-66
2021/12/29 01:07:44;;;;;;;3.58;0.98;;;23.10;97.00;;;;;;5031707;28;20179;-69
2021/12/29 01:10:14;;;;;;;3.00;0.60;;;23.30;96.90;;;;;;5030202;28;20116;-67
2021/12/29 01:12:51;;;;;;;3.13;0.68;;;23.30;95.30;;;;;;5030067;28;20060;-64
2021/12/29 01:15:24;;;;;;;3.00;0.75;;;23.30;96.50;;;;;;5030997;28;20559;-64
2021/12/29 01:17:53;;;;;;;2.55;1.00;;;23.30;98.40;;;;;;5027946;28;20021;-68
2021/12/29 01:20:21;;;;;;;2.38;0.88;;;23.20;98.90;;;;;;5030056;28;20022;-64
2021/12/29 01:22:50;;;;;;;4.72;1.20;;;23.30;99.50;;;;;;5029151;28;20327;-66
2021/12/29 01:25:17;;;;;;;2.13;0.70;;;23.60;99.40;;;;;;5032270;28;20036;-67
2021/12/29 01:27:45;;;;;;;1.13;0.47;;;23.70;98.30;;;;;;5029352;28;20029;-65
2021/12/29 01:30:12;;;;;;;2.17;0.60;;;24.10;97.80;;;;;;5030410;28;20040;-64
2021/12/29 01:32:40;;;;;;;2.03;0.80;;;24.60;97.90;;;;;;5031430;28;20479;-65
2021/12/29 01:35:09;;;;;;;2.33;0.80;;;25.00;96.80;;;;;;5032342;28;20025;-69
2021/12/29 01:37:37;;;;;;;2.78;0.68;;;25.30;95.50;;;;;;5033148;28;20032;-69
2021/12/29 01:40:10;;;;;;;3.22;0.93;;;25.50;94.40;;;;;;5031961;28;20021;-62
2021/12/29 01:42:37;;;;;;;1.25;0.55;;;25.40;94.90;;;;;;5031368;28;20021;-63
2021/12/29 01:45:05;;;;;;;2.38;0.70;;;25.40;94.20;;;;;;5032169;28;20156;-64
2021/12/29 01:47:33;;;;;;;3.13;0.63;;;25.40;94.20;;;;;;5032371;28;20119;-63
2021/12/29 01:50:01;;;;;;;5.63;1.17;;;25.20;94.20;;;;;;5032625;28;20099;-64
2021/12/29 01:52:37;;;;;;;2.08;0.65;;;25.20;93.10;;;;;;5030935;28;20037;-65
2021/12/29 01:55:10;;;;;;;2.67;0.60;;;25.00;93.30;;;;;;5032102;28;20707;-65
2021/12/29 01:57:38;;;;;;;2.60;0.68;;;24.80;94.30;;;;;;5032056;28;20087;-64
2021/12/29 02:00:11;;;;;;;2.20;0.85;;;24.80;93.80;;;;;;5032118;28;20032;-64
2021/12/29 02:02:38;;;;;;;2.53;0.82;;;24.80;95.00;;;;;;5032485;28;20112;-64
2021/12/29 02:05:05;;;;;;;1.05;0.50;;;24.60;94.30;;;;;;5031849;28;20029;-66
2021/12/29 02:07:32;;;;;;;2.30;0.73;;;24.20;94.90;;;;;;5032271;28;20041;-66
2021/12/29 02:10:00;;;;;;;1.15;0.75;;;24.10;95.60;;;;;;5035510;28;20463;-66
2021/12/29 02:12:27;;;;;;;2.03;0.40;;;24.10;95.00;;;;;;5034232;28;20064;-66
2021/12/29 02:14:54;;;;;;;2.50;1.00;;;23.90;95.30;;;;;;5036248;28;20029;-64
2021/12/29 02:17:21;;;;;;;3.60;0.93;;;24.10;94.90;;;;;;5034292;28;20025;-65
2021/12/29 02:19:48;;;;;;;1.40;0.52;;;24.30;96.00;;;;;;5037919;28;20028;-62
2021/12/29 02:22:33;;;;;;;3.20;0.70;;;24.50;93.70;;;;;;5036449;28;20508;-63
2021/12/29 02:25:22;;;;;;;2.28;0.40;;;24.60;95.20;;;;;;5035274;28;20068;-64
2021/12/29 02:27:54;;;;;;;2.47;0.60;;;24.70;93.30;;;;;;5034940;28;20032;-65
2021/12/29 02:30:26;;;;;;;3.60;0.60;;;24.80;93.00;;;;;;5033517;28;20536;-63
2021/12/29 02:32:57;;;;;;;;;;;25.00;94.00;;;;;;5033226;28;20677;-67
2021/12/29 02:35:25;;;;;;;1.75;0.52;;;25.00;93.20;;;;;;5032065;28;19921;-65
2021/12/29 02:37:52;;;;;;;3.13;0.70;;;25.10;93.40;;;;;;5033796;28;20361;-65
2021/12/29 02:40:19;;;;;;;1.42;0.55;;;25.40;92.80;;;;;;5033912;28;20059;-65
2021/12/29 02:42:47;;;;;;;2.35;0.63;;;25.70;93.70;;;;;;5032117;28;21379;-65
2021/12/29 02:45:21;;;;;;;1.60;0.43;;;25.90;92.70;;;;;;5032619;28;20724;-64
2021/12/29 02:47:49;;;;;;;1.77;0.70;;;26.50;92.60;;;;;;5034612;28;20028;-65
2021/12/29 02:50:18;;;;;;;1.90;0.73;;;27.00;91.10;;;;;;5032302;28;20025;-64
2021/12/29 02:52:46;;;;;;;0.82;0.60;;;27.30;90.60;;;;;;5033214;28;20039;-65
2021/12/29 02:55:14;;;;;;;1.98;0.63;;;27.50;90.20;;;;;;5032214;28;20033;-64
2021/12/29 02:57:42;;;;;;;1.25;0.65;;;27.60;86.30;;;;;;5032529;28;20033;-65
2021/12/29 03:00:14;;;;;;;1.48;0.55;;;27.30;87.70;;;;;;5033965;28;20029;-63
2021/12/29 03:02:40;;;;;;;;;;;27.40;90.40;;;;;;5033516;28;20025;-64
2021/12/29 03:05:08;;;;;;;0.65;0.50;;;27.80;90.70;;;;;;5032600;28;20008;-65
2021/12/29 03:07:35;;;;;;;2.50;0.77;;;28.30;87.70;;;;;;5033042;28;20164;-64
2021/12/29 03:10:02;;;;;;;0.68;0.32;;;28.60;83.10;;;;;;5034610;28;20029;-65
2021/12/29 03:12:29;;;;;;;1.38;0.50;;;28.80;84.10;;;;;;5033157;28;20630;-63
2021/12/29 03:14:58;;;;;;;2.60;0.60;;;29.40;79.60;;;;;;5033333;28;20548;-63
2021/12/29 03:17:25;;;;;;;1.08;0.50;;;29.70;77.80;;;;;;5033460;28;20030;-62
2021/12/29 03:19:52;;;;;;;1.77;0.45;;;29.70;78.30;;;;;;5035877;28;20032;-64
2021/12/29 03:22:19;;;;;;;2.75;0.68;;;30.10;77.00;;;;;;5034317;28;20546;-64
2021/12/29 03:24:46;;;;;;;1.67;0.52;;;30.10;75.60;;;;;;5034526;28;20479;-64
2021/12/29 03:27:14;;;;;;;0.88;0.40;;;29.60;77.10;;;;;;5034629;28;20029;-63
2021/12/29 03:29:41;;;;;;;1.95;0.47;;;29.50;75.90;;;;;;5033156;28;20021;-64
2021/12/29 03:32:10;;;;;;;1.63;0.68;;;28.80;78.10;;;;;;5033454;28;20025;-63
2021/12/29 03:34:37;;;;;;;1.40;0.60;;;28.40;78.00;;;;;;5035256;28;20021;-63
2021/12/29 03:37:05;;;;;;;0.98;0.55;;;28.20;78.90;;;;;;5035578;28;20096;-64
2021/12/29 03:39:38;;;;;;;0.63;0.50;;;28.40;77.00;;;;;;5035087;28;20029;-64
2021/12/29 03:42:06;;;;;;;0.52;0.38;;;28.50;77.30;;;;;;5033035;28;20026;-62
2021/12/29 03:44:34;;;;;;;0.70;0.30;;;28.40;77.10;;;;;;5035515;28;20041;-61
2021/12/29 03:47:01;;;;;;;1.88;0.47;;;28.40;74.00;;;;;;5034413;28;20028;-63
2021/12/29 03:49:28;;;;;;;2.22;0.68;;;28.20;75.40;;;;;;5035267;28;20016;-63
2021/12/29 03:51:55;;;;;;;1.10;0.63;;;28.30;77.60;;;;;;5034314;28;20257;-63
2021/12/29 03:54:22;;;;;;;0.90;0.52;;;28.40;74.80;;;;;;5034872;28;20025;-64
2021/12/29 03:56:49;;;;;;;0.88;0.40;;;28.60;72.60;;;;;;5032797;28;20033;-65
2021/12/29 03:59:16;;;;;;;2.58;0.52;;;28.30;73.00;;;;;;5034317;28;20418;-62
2021/12/29 04:01:44;;;;;;;3.58;2.40;;;28.40;72.20;;;;;;5033770;28;20036;-64
2021/12/29 04:04:11;;;;;;;1.98;0.60;;;28.80;75.50;;;;;;5034067;28;20046;-63
2021/12/29 04:06:38;;;;;;;1.60;0.32;;;29.80;70.50;;;;;;5033455;28;20033;-64
2021/12/29 04:09:05;;;;;;;2.00;0.60;;;30.10;71.60;;;;;;5033804;28;20128;-63
2021/12/29 04:11:32;;;;;;;0.85;0.60;;;29.90;69.60;;;;;;5031970;28;20036;-63
2021/12/29 04:13:59;;;;;;;1.65;0.60;;;29.80;69.60;;;;;;5032946;28;20663;-65
2021/12/29 04:16:26;;;;;;;1.50;0.40;;;30.30;71.50;;;;;;5032517;28;20063;-63
2021/12/29 04:19:06;;;;;;;1.92;0.73;;;30.90;68.80;;;;;;5034060;28;20029;-65
2021/12/29 04:21:36;;;;;;;2.55;0.50;;;30.40;71.00;;;;;;5033704;28;20055;-64
2021/12/29 04:24:04;;;;;;;1.17;0.32;;;30.00;68.50;;;;;;5033864;28;20030;-62
2021/12/29 04:26:33;;;;;;;1.40;0.65;;;29.70;70.00;;;;;;5033195;28;20145;-62
2021/12/29 04:29:00;;;;;;;0.63;0.40;;;29.60;67.40;;;;;;5032724;28;20040;-65
2021/12/29 04:31:27;;;;;;;1.27;0.63;;;29.40;70.10;;;;;;5032988;28;20036;-63
2021/12/29 04:33:54;;;;;;;1.70;0.57;;;29.50;67.50;;;;;;5033419;28;20148;-62
2021/12/29 04:36:24;;;;;;;3.50;0.80;;;29.70;72.40;;;;;;5033574;28;20029;-63
2021/12/29 04:38:53;;;;;;;2.00;0.80;;;30.30;71.70;;;;;;5034019;28;20027;-63
2021/12/29 04:41:21;;;;;;;1.65;0.50;;;30.60;67.60;;;;;;5032468;28;20155;-62
2021/12/29 04:43:49;;;;;;;1.63;0.50;;;30.50;67.00;;;;;;5020732;28;20093;-63
2021/12/29 04:46:18;;;;;;;2.22;0.55;;;30.30;65.70;;;;;;5013794;28;20041;-62
2021/12/29 04:48:52;;;;;;;2.70;0.63;;;30.50;67.40;;;;;;5013459;28;20090;-63
2021/12/29 04:51:25;;;;;;;1.25;0.52;;;30.30;66.60;;;;;;5013578;28;20149;-64
2021/12/29 04:53:53;;;;;;;3.40;0.80;;;29.60;67.60;;;;;;5013278;28;20033;-62
2021/12/29 04:56:20;;;;;;;2.55;0.93;;;29.20;68.90;;;;;;5012932;28;20136;-68
2021/12/29 04:58:46;;;;;;;2.58;0.70;;;29.20;69.60;;;;;;5013669;28;20047;-62
2021/12/29 05:01:13;;;;;;;3.33;0.63;;;29.30;70.80;;;;;;5013479;28;20068;-62
2021/12/29 05:03:43;;;;;;;2.40;0.50;;;29.50;70.80;;;;;;5011002;28;20061;-62
2021/12/29 05:08:38;;;;;;;2.10;0.60;;;29.80;65.60;;;;;;5013517;28;20921;-65
2021/12/29 05:11:11;;;;;;;2.88;2.05;;;29.90;65.80;;;;;;5014134;28;20056;-65
2021/12/29 05:13:41;;;;;;;2.40;1.63;;;29.70;65.20;;;;;;5013574;28;20076;-62
2021/12/29 05:16:08;;;;;;;17.00;15.20;;;29.70;67.70;;;;;;5011858;28;20460;-62
2021/12/29 05:18:38;;;;;;;2.40;1.20;;;29.90;67.80;;;;;;5013814;28;20018;-62
2021/12/29 05:21:07;;;;;;;0.75;0.50;;;30.20;66.10;;;;;;5011769;28;20296;-62
2021/12/29 05:23:35;;;;;;;1.48;0.70;;;29.60;67.30;;;;;;5010711;28;20030;-62
2021/12/29 05:26:02;;;;;;;2.70;0.60;;;29.60;67.40;;;;;;5009952;28;20029;-65
2021/12/29 05:28:29;;;;;;;1.73;0.60;;;29.90;70.40;;;;;;5010618;28;20122;-62
2021/12/29 05:30:56;;;;;;;2.15;0.50;;;29.60;65.20;;;;;;5008692;28;20025;-62
2021/12/29 05:33:24;;;;;;;1.17;0.52;;;28.70;68.30;;;;;;5011218;28;20026;-65
2021/12/29 05:35:51;;;;;;;0.88;0.50;;;28.10;69.30;;;;;;5010704;28;20030;-62
2021/12/29 05:38:18;;;;;;;2.38;0.95;;;28.10;69.60;;;;;;5011939;28;20017;-60
2021/12/29 05:40:45;;;;;;;2.88;0.85;;;28.30;73.40;;;;;;5010514;28;20038;-62
2021/12/29 05:43:12;;;;;;;3.28;0.90;;;28.50;76.50;;;;;;5010701;28;20018;-63
2021/12/29 05:45:39;;;;;;;3.08;0.70;;;28.70;76.80;;;;;;5059615;23;20124;-62
2021/12/29 05:48:07;;;;;;;1.88;0.73;;;28.80;73.70;;;;;;5030254;28;20775;-63
2021/12/29 05:50:34;;;;;;;1.70;0.60;;;29.20;73.40;;;;;;5032287;28;20048;-63
2021/12/29 05:53:03;;;;;;;1.52;0.57;;;29.00;73.80;;;;;;5031313;28;20044;-63
2021/12/29 05:55:30;;;;;;;3.85;0.93;;;29.20;76.40;;;;;;5030411;28;20120;-62
2021/12/29 05:57:58;;;;;;;2.50;0.80;;;29.70;71.70;;;;;;5032219;28;20471;-61
2021/12/29 06:00:27;;;;;;;1.80;0.70;;;30.00;72.60;;;;;;5031172;28;20029;-65
2021/12/29 06:02:55;;;;;;;1.25;0.70;;;30.10;72.10;;;;;;5031912;28;20086;-62
2021/12/29 06:05:23;;;;;;;1.52;0.68;;;30.20;71.10;;;;;;5031779;28;20029;-61
2021/12/29 06:07:50;;;;;;;1.70;1.02;;;30.10;70.10;;;;;;5032533;28;20048;-65
2021/12/29 06:10:17;;;;;;;2.95;0.75;;;30.00;70.40;;;;;;5033028;28;20025;-61
2021/12/29 06:12:44;;;;;;;2.72;1.38;;;29.80;72.00;;;;;;5032153;28;20025;-60
2021/12/29 06:15:11;;;;;;;1.70;0.63;;;30.30;70.60;;;;;;5032074;28;20029;-59
2021/12/29 06:17:39;;;;;;;2.08;0.60;;;30.90;65.60;;;;;;5032038;28;20029;-62
2021/12/29 06:20:08;;;;;;;2.63;0.77;;;30.60;69.10;;;;;;5032435;28;20547;-64
2021/12/29 06:22:36;;;;;;;2.17;0.68;;;30.60;70.10;;;;;;5032515;28;20017;-63
2021/12/29 06:25:05;;;;;;;3.83;0.82;;;29.90;71.80;;;;;;5031515;28;20053;-63
2021/12/29 06:27:32;;;;;;;2.28;1.05;;;28.40;74.60;;;;;;5031975;28;20162;-61
2021/12/29 06:29:59;;;;;;;2.95;0.82;;;28.10;77.50;;;;;;5031405;28;20025;-64
2021/12/29 06:32:26;;;;;;;2.25;1.00;;;28.30;77.90;;;;;;5031246;28;20452;-63
2021/12/29 06:34:54;;;;;;;3.03;0.70;;;28.90;75.30;;;;;;5032763;28;20028;-61
2021/12/29 06:37:22;;;;;;;1.88;0.73;;;29.60;72.50;;;;;;5032345;28;20033;-61
2021/12/29 06:39:50;;;;;;;2.55;0.80;;;29.70;71.70;;;;;;5031628;28;20013;-61
2021/12/29 06:42:17;;;;;;;3.10;0.80;;;29.90;69.70;;;;;;5032069;28;20120;-63
2021/12/29 06:44:45;;;;;;;2.92;0.90;;;30.40;71.70;;;;;;5032041;28;20053;-64
2021/12/29 06:47:13;;;;;;;1.58;0.60;;;30.90;69.70;;;;;;5032535;28;20029;-64
2021/12/29 06:49:41;;;;;;;2.30;0.77;;;30.50;69.90;;;;;;5031736;28;20113;-64
2021/12/29 06:52:09;;;;;;;2.67;0.75;;;30.70;66.80;;;;;;5022517;28;20487;-64
2021/12/29 06:54:38;;;;;;;4.07;0.73;;;30.30;69.70;;;;;;5034836;28;20028;-61
2021/12/29 06:57:06;;;;;;;2.33;0.90;;;30.60;68.40;;;;;;5034669;28;20056;-62
2021/12/29 06:59:33;;;;;;;1.88;0.70;;;30.90;70.30;;;;;;5034788;28;20056;-63
2021/12/29 07:02:01;;;;;;;1.65;0.70;;;31.40;68.80;;;;;;5035245;28;20423;-63
2021/12/29 07:04:28;;;;;;;2.17;0.90;;;32.20;62.70;;;;;;5040562;28;20832;-64
2021/12/29 07:06:55;;;;;;;2.20;0.60;;;31.60;66.50;;;;;;5033921;28;20600;-63
2021/12/29 07:09:23;;;;;;;2.42;0.77;;;31.90;67.10;;;;;;5042818;28;20116;-63
2021/12/29 07:11:51;;;;;;;3.10;0.80;;;32.60;65.00;;;;;;5037212;28;20033;-61
2021/12/29 07:14:20;;;;;;;3.10;0.80;;;32.50;62.30;;;;;;5033559;28;20483;-61
2021/12/29 07:16:48;;;;;;;2.78;0.70;;;32.70;60.70;;;;;;5042625;28;20067;-62
2021/12/29 07:19:16;;;;;;;2.85;0.70;;;32.10;63.50;;;;;;5043045;28;20037;-62
2021/12/29 07:21:44;;;;;;;3.38;0.75;;;32.00;63.80;;;;;;4687043;28;10000255;-65
2021/12/29 07:24:12;;;;;;;1.42;0.60;;;31.80;61.80;;;;;;5041101;28;20029;-63
2021/12/29 07:26:39;;;;;;;0.93;0.50;;;31.60;62.90;;;;;;5041283;28;20051;-61
2021/12/29 07:29:07;;;;;;;1.27;0.60;;;31.60;61.30;;;;;;5029505;28;20030;-64
2021/12/29 07:31:35;;;;;;;1.08;0.40;;;31.40;62.20;;;;;;5035195;28;20403;-64
2021/12/29 07:34:02;;;;;;;2.25;0.65;;;31.50;62.70;;;;;;5031192;28;20037;-65
2021/12/29 07:36:29;;;;;;;4.22;0.90;;;32.00;62.00;;;;;;5033538;28;20112;-64
2021/12/29 07:38:57;;;;;;;1.48;0.70;;;32.30;60.60;;;;;;5026668;28;20010;-61
2021/12/29 07:41:24;;;;;;;1.20;0.50;;;32.10;60.50;;;;;;5028540;28;20029;-67
2021/12/29 07:43:52;;;;;;;2.35;0.85;;;31.70;62.10;;;;;;5040494;28;20037;-63
2021/12/29 07:46:19;;;;;;;1.52;0.52;;;31.60;59.90;;;;;;5033331;28;20044;-64
2021/12/29 07:48:46;;;;;;;3.97;0.60;;;32.00;59.30;;;;;;5031101;28;20120;-64
2021/12/29 07:51:15;;;;;;;2.38;0.50;;;31.70;60.30;;;;;;5037903;28;20290;-61
2021/12/29 07:53:42;;;;;;;2.15;0.50;;;31.80;59.10;;;;;;5033719;28;20036;-61
2021/12/29 07:56:09;;;;;;;1.08;0.77;;;31.60;58.90;;;;;;5032825;28;20108;-64
2021/12/29 07:58:36;;;;;;;2.60;0.60;;;31.20;58.90;;;;;;5029411;28;20129;-62
2021/12/29 08:01:04;;;;;;;2.83;0.70;;;30.60;60.30;;;;;;5039208;28;20029;-65
2021/12/29 08:03:31;;;;;;;2.60;0.90;;;30.60;60.10;;;;;;5033026;28;20025;-62
2021/12/29 08:05:58;;;;;;;0.60;0.40;;;30.70;62.00;;;;;;5037163;28;20486;-61
2021/12/29 08:08:25;;;;;;;1.20;0.52;;;31.20;59.50;;;;;;5044459;28;20025;-62
2021/12/29 08:10:52;;;;;;;1.02;0.70;;;31.40;59.40;;;;;;5026151;28;20037;-62
2021/12/29 08:13:19;;;;;;;1.73;0.50;;;31.70;58.20;;;;;;5027227;28;20711;-64
2021/12/29 08:15:46;;;;;;;1.73;0.50;;;31.10;59.20;;;;;;5031128;28;20032;-62
2021/12/29 08:18:13;;;;;;;1.00;0.60;;;30.50;61.70;;;;;;5040072;28;20346;-63
2021/12/29 08:20:40;;;;;;;0.98;0.63;;;30.50;62.10;;;;;;5039855;28;20072;-62
2021/12/29 08:23:10;;;;;;;2.05;1.00;;;30.70;62.00;;;;;;5032393;28;20451;-63
2021/12/29 08:25:38;;;;;;;2.53;0.60;;;30.60;61.60;;;;;;5034176;28;20035;-62
2021/12/29 08:28:06;;;;;;;3.47;0.70;;;30.30;61.60;;;;;;5027617;28;20057;-63
2021/12/29 08:30:33;;;;;;;3.17;1.70;;;30.30;63.10;;;;;;5033086;28;20038;-65
2021/12/29 08:33:00;;;;;;;1.35;0.60;;;29.60;63.20;;;;;;5030339;28;20037;-64
2021/12/29 08:35:28;;;;;;;2.22;1.45;;;28.40;66.30;;;;;;5036497;28;20032;-62
2021/12/29 08:37:56;;;;;;;3.67;0.80;;;27.10;71.40;;;;;;5036018;28;20067;-65
2021/12/29 08:40:25;;;;;;;2.28;0.50;;;26.40;73.20;;;;;;5037918;28;20494;-62
2021/12/29 08:42:54;;;;;;;2.28;0.60;;;26.10;73.80;;;;;;5031993;28;20033;-64
2021/12/29 08:45:22;;;;;;;0.98;0.60;;;25.70;76.00;;;;;;5033612;28;20048;-64
2021/12/29 08:47:49;;;;;;;3.25;0.88;;;25.50;78.10;;;;;;5034093;28;20021;-62
2021/12/29 08:50:19;;;;;;;4.25;1.67;;;25.10;81.30;;;;;;5038480;28;20025;-66
2021/12/29 08:52:47;;;;;;;3.72;0.90;;;25.00;81.60;;;;;;5033200;28;20039;-67
2021/12/29 08:55:14;;;;;;;3.70;0.82;;;24.80;84.50;;;;;;5031058;28;20403;-62
2021/12/29 08:57:42;;;;;;;1.70;0.60;;;24.40;86.50;;;;;;5030469;28;20033;-63
2021/12/29 09:00:13;;;;;;;1.30;0.50;;;23.90;89.90;;;;;;5033019;28;20026;-64
2021/12/29 09:02:41;;;;;;;3.13;0.80;;;23.70;90.80;;;;;;5027519;28;20017;-66
2021/12/29 09:05:09;;;;;;;2.50;0.70;;;23.50;91.30;;;;;;5029296;28;20084;-65
2021/12/29 09:07:36;;;;;;;0.73;0.43;;;23.20;93.50;;;;;;5032217;28;20117;-65
2021/12/29 09:10:05;;;;;;;3.00;0.90;;;22.90;93.70;;;;;;5033097;28;20017;-66
2021/12/29 09:12:32;;;;;;;1.02;0.50;;;22.80;95.00;;;;;;5033611;28;20061;-62
2021/12/29 09:14:59;;;;;;;2.72;0.50;;;22.50;95.60;;;;;;5034927;28;20025;-69
2021/12/29 09:17:27;;;;;;;1.88;0.50;;;22.40;96.60;;;;;;5033009;28;20559;-63
2021/12/29 09:19:54;;;;;;;2.83;1.10;;;22.20;97.60;;;;;;5028532;28;20036;-68
2021/12/29 09:22:21;;;;;;;2.63;0.52;;;22.10;98.70;;;;;;5032083;28;20021;-64
2021/12/29 09:24:49;;;;;;;1.70;0.43;;;22.10;99.00;;;;;;5036627;28;20119;-65
2021/12/29 09:27:16;;;;;;;0.95;0.50;;;22.00;99.30;;;;;;5029862;28;20617;-64
2021/12/29 09:29:44;;;;;;;4.35;0.55;;;21.80;99.70;;;;;;5034982;28;20778;-66
2021/12/29 09:32:12;;;;;;;2.67;0.68;;;21.70;99.90;;;;;;5030837;28;20052;-66
2021/12/29 09:34:39;;;;;;;2.20;0.80;;;21.60;99.90;;;;;;5030694;28;20660;-68
2021/12/29 09:37:06;;;;;;;1.80;0.60;;;21.60;99.90;;;;;;5033237;28;20076;-65
2021/12/29 09:39:34;;;;;;;1.55;0.65;;;21.40;99.90;;;;;;5027355;28;20021;-64
2021/12/29 09:42:01;;;;;;;2.13;0.60;;;21.50;99.90;;;;;;5026775;28;20033;-69
2021/12/29 09:44:30;;;;;;;3.42;1.30;;;21.40;99.90;;;;;;5029310;28;20048;-65
2021/12/29 09:46:58;;;;;;;2.90;1.00;;;21.20;99.90;;;;;;5026114;28;20067;-66
2021/12/29 09:49:25;;;;;;;1.83;0.70;;;21.20;99.90;;;;;;5036684;28;20437;-69
2021/12/29 09:51:52;;;;;;;2.95;0.95;;;21.00;99.90;;;;;;5031162;28;20040;-68
2021/12/29 09:54:19;;;;;;;2.20;1.00;;;20.90;99.90;;;;;;5039857;28;20039;-68
2021/12/29 09:56:46;;;;;;;4.32;1.65;;;20.70;99.90;;;;;;5034320;28;20134;-69
2021/12/29 09:59:13;;;;;;;2.15;1.25;;;20.60;99.90;;;;;;5032660;28;20027;-69
2021/12/29 10:01:40;;;;;;;2.65;1.13;;;20.70;99.90;;;;;;5034222;28;20030;-66
2021/12/29 10:04:07;;;;;;;3.63;1.80;;;20.50;99.90;;;;;;5029370;28;20032;-69
2021/12/29 10:06:35;;;;;;;5.15;4.10;;;20.40;99.90;;;;;;5030122;28;20384;-69
2021/12/29 10:09:15;;;;;;;2.13;1.27;;;20.30;99.90;;;;;;5030820;28;20035;-66
2021/12/29 10:11:44;;;;;;;2.97;1.05;;;20.30;99.90;;;;;;5031706;28;20060;-66
2021/12/29 10:14:15;;;;;;;2.92;1.42;;;20.20;99.90;;;;;;5029583;28;20136;-64
2021/12/29 10:16:46;;;;;;;2.35;0.90;;;20.10;99.90;;;;;;5025683;28;20416;-66
2021/12/29 10:19:14;;;;;;;4.95;1.02;;;20.00;99.90;;;;;;5034713;28;20120;-69
2021/12/29 10:21:44;;;;;;;2.83;0.95;;;20.00;99.90;;;;;;5033736;28;20029;-65
2021/12/29 10:24:12;;;;;;;2.55;0.90;;;19.90;99.90;;;;;;5039167;28;20134;-64
2021/12/29 10:26:43;;;;;;;2.15;0.93;;;19.80;99.90;;;;;;5037690;28;20033;-64
2021/12/29 10:29:13;;;;;;;4.60;0.88;;;19.70;99.90;;;;;;5031523;28;20021;-67
2021/12/29 10:31:43;;;;;;;3.03;0.90;;;19.60;99.90;;;;;;5039561;28;20029;-62
2021/12/29 10:34:13;;;;;;;1.67;0.80;;;19.60;99.90;;;;;;5040966;28;20041;-62
2021/12/29 10:36:46;;;;;;;1.88;0.80;;;19.50;99.90;;;;;;5033145;28;20612;-65
2021/12/29 10:39:20;;;;;;;2.13;1.17;;;19.30;99.90;;;;;;5039814;28;20363;-66
2021/12/29 10:41:55;;;;;;;4.22;1.23;;;19.30;99.90;;;;;;5029377;28;20029;-62
2021/12/29 10:44:43;;;;;;;2.90;0.90;;;19.30;99.90;;;;;;5040763;28;20056;-62
2021/12/29 10:47:19;;;;;;;3.80;0.90;;;19.10;99.90;;;;;;5042569;28;20032;-64
2021/12/29 10:50:10;;;;;;;3.33;1.08;;;19.20;99.90;;;;;;5037746;28;20029;-67
2021/12/29 10:52:46;;;;;;;3.95;0.90;;;19.30;99.90;;;;;;5042525;28;20021;-70
2021/12/29 10:55:20;;;;;;;3.75;1.00;;;19.30;99.90;;;;;;5036750;28;20039;-66
2021/12/29 10:57:59;;;;;;;2.55;1.23;;;19.30;99.90;;;;;;5046680;28;20017;-70
2021/12/29 11:00:27;;;;;;;3.80;0.90;;;19.20;99.90;;;;;;5040189;28;20075;-66
2021/12/29 11:02:57;;;;;;;2.33;0.90;;;19.20;99.90;;;;;;5042865;28;20116;-69
2021/12/29 11:05:34;;;;;;;3.78;1.23;;;19.20;99.90;;;;;;5032360;28;20029;-61
2021/12/29 11:08:07;;;;;;;3.40;0.93;;;19.20;99.90;;;;;;5040506;28;20114;-61
2021/12/29 11:10:34;;;;;;;2.88;1.10;;;19.30;99.90;;;;;;5029036;28;20030;-66
2021/12/29 11:13:01;;;;;;;3.35;1.55;;;19.40;99.90;;;;;;5033656;28;20072;-63
2021/12/29 11:15:32;;;;;;;2.30;0.98;;;19.40;99.90;;;;;;5039660;28;20029;-70
2021/12/29 11:18:11;;;;;;;2.55;0.82;;;19.40;99.90;;;;;;5039479;28;20025;-63
2021/12/29 11:20:40;;;;;;;4.45;1.00;;;19.20;99.90;;;;;;5039789;28;20108;-62
2021/12/29 11:23:09;;;;;;;2.28;1.20;;;19.30;99.90;;;;;;5037440;28;20136;-62
2021/12/29 11:25:36;;;;;;;3.75;1.38;;;19.20;99.90;;;;;;5035312;28;20036;-70
2021/12/29 11:28:05;;;;;;;3.47;1.42;;;19.20;99.90;;;;;;5032030;28;20029;-62
2021/12/29 11:30:33;;;;;;;3.17;1.35;;;19.10;99.90;;;;;;5036693;28;20496;-68
2021/12/29 11:33:10;;;;;;;4.93;1.77;;;19.00;99.90;;;;;;5038667;28;20136;-61
2021/12/29 11:35:42;;;;;;;3.13;1.67;;;19.10;99.90;;;;;;5037297;28;20171;-69
2021/12/29 11:38:10;;;;;;;3.00;1.48;;;19.20;99.90;;;;;;5042091;28;20022;-69
2021/12/29 11:40:40;;;;;;;3.72;1.30;;;19.10;99.90;;;;;;5038832;28;20064;-62
2021/12/29 11:43:11;;;;;;;4.03;1.52;;;19.00;99.90;;;;;;5038052;28;20507;-61
2021/12/29 11:45:39;;;;;;;4.28;1.65;;;18.90;99.90;;;;;;5040854;28;20134;-66
2021/12/29 11:48:08;;;;;;;2.63;1.30;;;18.80;99.90;;;;;;5032387;28;20379;-71
2021/12/29 11:50:38;;;;;;;2.22;1.17;;;18.80;99.90;;;;;;5037704;28;20502;-66
2021/12/29 11:53:38;;;;;;;3.13;1.25;;;18.90;99.90;;;;;;5034417;28;20039;-71
2021/12/29 11:56:14;;;;;;;4.60;1.48;;;18.90;99.90;;;;;;5029333;28;20114;-70
2021/12/29 11:58:43;;;;;;;2.67;1.58;;;18.90;99.90;;;;;;5035084;28;20021;-66
2021/12/29 12:01:22;;;;;;;3.50;1.60;;;18.80;99.90;;;;;;5035130;28;20795;-60
2021/12/29 12:04:00;;;;;;;3.03;1.48;;;18.50;99.90;;;;;;5032517;28;20184;-62
2021/12/29 12:06:31;;;;;;;4.05;1.40;;;18.30;99.90;;;;;;5030892;28;20454;-66
2021/12/29 12:09:10;;;;;;;3.40;1.70;;;18.40;99.90;;;;;;5032726;28;20034;-70
2021/12/29 12:11:41;;;;;;;2.80;1.52;;;18.50;99.90;;;;;;5032127;28;20044;-70
2021/12/29 12:14:30;;;;;;;4.85;1.30;;;18.40;99.90;;;;;;5036471;28;20164;-62
2021/12/29 12:17:01;;;;;;;3.22;1.40;;;18.30;99.90;;;;;;5033529;28;20083;-62
2021/12/29 12:19:31;;;;;;;4.35;1.45;;;18.20;99.90;;;;;;5033175;28;20029;-62
2021/12/29 12:22:10;;;;;;;5.22;1.70;;;18.30;99.90;;;;;;5032832;28;20634;-67
2021/12/29 12:24:41;;;;;;;2.13;1.30;;;18.40;99.90;;;;;;5035575;28;20103;-64
2021/12/29 12:27:15;;;;;;;3.80;1.40;;;18.40;99.90;;;;;;5033129;28;20025;-63
2021/12/29 12:29:44;;;;;;;3.40;1.60;;;18.40;99.90;;;;;;5036133;28;20058;-62
2021/12/29 12:32:21;;;;;;;2.85;1.65;;;18.20;99.90;;;;;;5031967;28;20024;-62
2021/12/29 12:34:58;;;;;;;3.60;1.58;;;18.30;99.90;;;;;;5033637;28;20039;-63
2021/12/29 12:37:41;;;;;;;2.33;1.27;;;18.40;99.90;;;;;;5034867;28;20035;-62
2021/12/29 12:40:30;;;;;;;3.10;1.40;;;18.40;99.90;;;;;;5033461;28;20105;-61
2021/12/29 12:43:17;;;;;;;4.63;1.38;;;18.40;99.90;;;;;;5035233;28;20050;-63
2021/12/29 12:45:51;;;;;;;3.97;1.60;;;18.50;99.90;;;;;;5034439;28;20076;-66
2021/12/29 12:48:29;;;;;;;3.22;1.67;;;18.50;99.90;;;;;;5035526;28;20079;-66
2021/12/29 12:51:00;;;;;;;3.92;1.55;;;18.50;99.90;;;;;;5034914;28;20087;-63
2021/12/29 12:53:31;;;;;;;3.20;1.23;;;18.50;99.90;;;;;;5035902;28;20144;-61
2021/12/29 12:56:00;;;;;;;3.87;1.67;;;18.40;99.90;;;;;;5037012;28;20496;-64
2021/12/29 12:58:37;;;;;;;3.85;1.33;;;18.30;99.90;;;;;;5035429;28;20048;-67
2021/12/29 13:01:16;;;;;;;3.28;1.60;;;18.40;99.90;;;;;;5038151;28;20176;-67